createdAt,value
2023-02-14T11:25:13.812Z,13.70
2023-02-14T11:26:13.776Z,13.10
2023-02-14T11:27:13.820Z,12.30
2023-02-14T11:28:13.754Z,12.00
2023-02-14T11:29:13.769Z,11.90
2023-02-14T11:30:13.794Z,11.60
2023-02-14T11:31:13.763Z,13.20
2023-02-14T11:32:13.695Z,11.90
2023-02-14T11:33:13.703Z,12.50
2023-02-14T11:34:13.653Z,14.10
2023-02-14T11:35:13.682Z,12.10
2023-02-14T11:36:13.652Z,12.80
2023-02-14T11:37:26.898Z,12.80
2023-02-14T11:38:13.594Z,13.10
2023-02-14T11:39:13.594Z,12.30
2023-02-14T11:40:13.561Z,12.10
2023-02-14T11:41:13.578Z,11.40
2023-02-14T11:42:13.538Z,12.40
2023-02-14T11:43:14.795Z,11.80
2023-02-14T11:44:13.550Z,11.60
2023-02-14T11:45:13.547Z,12.10
2023-02-14T11:46:13.534Z,12.00
2023-02-14T11:47:13.555Z,11.10
2023-02-14T11:48:13.458Z,11.60
2023-02-14T11:49:13.504Z,12.50
2023-02-14T11:50:13.509Z,12.40
2023-02-14T11:51:13.628Z,14.30
2023-02-14T11:52:13.449Z,12.50
2023-02-14T11:53:13.448Z,13.40
2023-02-14T11:54:13.371Z,11.20
2023-02-14T11:55:13.440Z,12.60
2023-02-14T11:56:13.444Z,12.60
2023-02-14T11:57:13.354Z,11.50
2023-02-14T11:58:13.312Z,12.50
2023-02-14T11:59:13.300Z,12.80
2023-02-14T12:00:13.342Z,13.50
2023-02-14T12:01:13.372Z,13.80
2023-02-14T12:02:13.374Z,12.10
2023-02-14T12:03:13.399Z,12.20
2023-02-14T12:04:13.323Z,12.40
2023-02-14T12:05:13.221Z,12.40
2023-02-14T12:06:13.226Z,13.10
2023-02-14T12:07:13.197Z,12.80
2023-02-14T12:08:13.198Z,11.90
2023-02-14T12:09:13.162Z,13.10
2023-02-14T12:10:13.177Z,12.20
2023-02-14T12:11:13.276Z,11.80
2023-02-14T12:12:13.136Z,12.40
2023-02-14T12:13:13.107Z,15.20
2023-02-14T12:14:13.128Z,11.60
2023-02-14T12:15:13.086Z,12.10
2023-02-14T12:16:13.122Z,13.90
2023-02-14T12:17:13.061Z,12.40
2023-02-14T12:18:13.052Z,11.60
2023-02-14T12:19:13.022Z,11.70
2023-02-14T12:20:13.034Z,11.80
2023-02-14T12:21:13.118Z,12.60
2023-02-14T12:22:13.000Z,11.40
2023-02-14T12:23:12.971Z,11.30
2023-02-14T12:24:12.963Z,11.50
2023-02-14T12:25:12.987Z,12.20
2023-02-14T12:26:12.944Z,11.40
2023-02-14T12:27:12.933Z,11.50
2023-02-14T12:28:12.921Z,11.70
2023-02-14T12:29:12.932Z,12.50
2023-02-14T12:30:12.994Z,12.30
2023-02-14T12:31:13.018Z,11.70
2023-02-14T12:32:12.901Z,11.20
2023-02-14T12:33:12.838Z,11.70
2023-02-14T12:34:12.833Z,13.60
2023-02-14T12:35:12.829Z,13.00
2023-02-14T12:36:12.874Z,12.80
2023-02-14T12:37:12.795Z,12.50
2023-02-14T12:38:12.782Z,13.10
2023-02-14T12:39:12.744Z,11.10
2023-02-14T12:40:12.743Z,11.30
2023-02-14T12:41:12.750Z,11.50
2023-02-14T12:42:12.700Z,12.80
2023-02-14T12:43:12.697Z,12.10
2023-02-14T12:44:12.711Z,14.10
2023-02-14T12:45:12.686Z,12.10
2023-02-14T12:46:12.691Z,12.00
2023-02-14T12:47:12.671Z,11.40
2023-02-14T12:48:15.080Z,12.50
2023-02-14T12:49:12.626Z,12.40
2023-02-14T12:50:12.611Z,11.70
2023-02-14T12:51:12.597Z,12.50
2023-02-14T12:52:12.596Z,13.40
2023-02-14T12:53:12.608Z,11.40
2023-02-14T12:54:12.567Z,12.70
2023-02-14T12:55:12.548Z,11.00
2023-02-14T12:56:12.509Z,11.50
2023-02-14T12:57:12.545Z,11.50
2023-02-14T12:58:12.525Z,11.00
2023-02-14T12:59:12.893Z,12.20
2023-02-14T13:00:12.502Z,12.90
2023-02-14T13:01:13.245Z,11.90
2023-02-14T13:02:12.494Z,12.00
2023-02-14T13:03:12.504Z,11.80
2023-02-14T13:04:12.414Z,12.60
2023-02-14T13:05:12.430Z,10.90
2023-02-14T13:06:12.391Z,11.20
2023-02-14T13:07:12.373Z,12.70
2023-02-14T13:08:12.390Z,13.50
2023-02-14T13:09:12.362Z,11.60
2023-02-14T13:10:12.375Z,10.90
2023-02-14T13:11:12.325Z,11.70
2023-02-14T13:12:12.296Z,12.90
2023-02-14T13:13:12.318Z,11.90
2023-02-14T13:14:12.293Z,12.80
2023-02-14T13:15:12.285Z,11.20
2023-02-14T13:16:12.271Z,11.80
2023-02-14T13:17:12.244Z,12.10
2023-02-14T13:18:12.265Z,12.60
2023-02-14T13:19:12.232Z,12.40
2023-02-14T13:20:12.208Z,13.50
2023-02-14T13:21:12.177Z,13.30
2023-02-14T13:22:12.168Z,14.70
2023-02-14T13:23:12.146Z,13.30
2023-02-14T13:24:12.136Z,13.30
2023-02-14T13:25:12.145Z,14.30
2023-02-14T13:26:12.095Z,13.80
2023-02-14T13:27:12.097Z,13.10
2023-02-14T13:28:12.094Z,14.10
2023-02-14T13:29:12.068Z,12.10
2023-02-14T13:30:12.132Z,12.60
2023-02-14T13:31:12.229Z,11.90
2023-02-14T13:32:12.049Z,12.70
2023-02-14T13:33:12.041Z,11.40
2023-02-14T13:34:11.999Z,11.80
2023-02-14T13:35:12.012Z,12.40
2023-02-14T13:36:12.009Z,12.30
2023-02-14T13:37:11.964Z,12.20
2023-02-14T13:38:12.001Z,12.00
2023-02-14T13:39:11.942Z,12.20
2023-02-14T13:40:11.927Z,13.30
2023-02-14T13:41:11.941Z,12.60
2023-02-14T13:42:11.974Z,13.00
2023-02-14T13:43:11.898Z,13.30
2023-02-14T13:44:11.889Z,13.20
2023-02-14T13:45:14.094Z,12.30
2023-02-14T13:46:11.887Z,11.30
2023-02-14T13:47:11.827Z,11.50
2023-02-14T13:48:11.826Z,12.00
2023-02-14T13:49:11.898Z,11.40
2023-02-14T13:50:11.781Z,12.40
2023-02-14T13:51:11.764Z,12.50
2023-02-14T13:52:11.770Z,12.70
2023-02-14T13:53:11.730Z,12.50
2023-02-14T13:54:11.720Z,10.90
2023-02-14T13:55:11.700Z,12.40
2023-02-14T13:56:11.709Z,12.20
2023-02-14T13:57:11.701Z,14.10
2023-02-14T13:58:11.680Z,11.60
2023-02-14T13:59:11.661Z,13.20
2023-02-14T14:00:11.670Z,11.00
2023-02-14T14:01:11.660Z,12.00
2023-02-14T14:02:11.624Z,12.70
2023-02-14T14:03:11.631Z,12.90
2023-02-14T14:04:11.679Z,12.90
2023-02-14T14:05:11.593Z,12.50
2023-02-14T14:06:11.554Z,12.90
2023-02-14T14:07:11.544Z,12.70
2023-02-14T14:08:11.536Z,12.20
2023-02-14T14:09:11.530Z,13.60
2023-02-14T14:10:11.533Z,11.70
2023-02-14T14:11:11.492Z,11.30
2023-02-14T14:12:11.495Z,11.90
2023-02-14T14:13:11.456Z,11.90
2023-02-14T14:14:11.448Z,12.40
2023-02-14T14:15:11.466Z,13.00
2023-02-14T14:16:11.506Z,11.80
2023-02-14T14:17:11.429Z,13.00
2023-02-14T14:18:11.435Z,11.70
2023-02-14T14:19:11.381Z,11.80
2023-02-14T14:20:11.390Z,13.20
2023-02-14T14:21:11.362Z,11.50
2023-02-14T14:22:11.381Z,13.90
2023-02-14T14:23:11.328Z,11.80
2023-02-14T14:24:11.352Z,11.30
2023-02-14T14:25:11.317Z,10.60
2023-02-14T14:26:11.316Z,11.90
2023-02-14T14:27:11.361Z,12.50
2023-02-14T14:28:11.297Z,11.50
2023-02-14T14:29:11.289Z,13.00
2023-02-14T14:30:11.321Z,12.30
2023-02-14T14:31:11.301Z,11.30
2023-02-14T14:32:11.254Z,12.30
2023-02-14T14:33:11.211Z,12.30
2023-02-14T14:34:11.242Z,10.80
2023-02-14T14:35:11.215Z,11.00
2023-02-14T14:36:11.176Z,13.40
2023-02-14T14:37:11.163Z,11.10
2023-02-14T14:38:11.145Z,10.20
2023-02-14T14:39:11.133Z,11.30
2023-02-14T14:40:11.185Z,11.60
2023-02-14T14:41:11.103Z,10.10
2023-02-14T14:42:11.068Z,11.80
2023-02-14T14:43:11.077Z,11.30
2023-02-14T14:44:11.057Z,10.70
2023-02-14T14:45:11.063Z,10.20
2023-02-14T14:46:11.081Z,10.20
2023-02-14T14:47:11.006Z,11.00
2023-02-14T14:48:10.981Z,10.30
2023-02-14T14:49:10.987Z,11.10
2023-02-14T14:50:11.075Z,9.20
2023-02-14T14:51:10.965Z,9.20
2023-02-14T14:52:10.984Z,11.20
2023-02-14T14:53:10.998Z,10.80
2023-02-14T14:54:10.933Z,9.90
2023-02-14T14:55:10.942Z,10.60
2023-02-14T14:56:10.885Z,9.80
2023-02-14T14:57:10.876Z,10.70
2023-02-14T14:58:10.922Z,10.20
2023-02-14T14:59:10.837Z,10.40
2023-02-14T15:00:10.921Z,10.00
2023-02-14T15:01:10.894Z,9.40
2023-02-14T15:02:10.801Z,10.10
2023-02-14T15:03:10.808Z,10.40
2023-02-14T15:04:12.344Z,12.40
2023-02-14T15:05:10.780Z,11.60
2023-02-14T15:06:10.760Z,10.60
2023-02-14T15:07:10.746Z,10.50
2023-02-14T15:08:10.750Z,13.50
2023-02-14T15:09:10.705Z,9.30
2023-02-14T15:10:10.736Z,11.40
2023-02-14T15:11:10.710Z,10.80
2023-02-14T15:12:10.678Z,11.40
2023-02-14T15:13:10.676Z,11.40
2023-02-14T15:14:10.651Z,11.30
2023-02-14T15:15:10.617Z,10.90
2023-02-14T15:16:10.743Z,12.60
2023-02-14T15:17:10.647Z,12.50
2023-02-14T15:18:10.591Z,11.10
2023-02-14T15:19:10.568Z,12.90
2023-02-14T15:20:10.566Z,11.70
2023-02-14T15:21:10.576Z,12.10
2023-02-14T15:22:10.551Z,14.50
2023-02-14T15:23:10.541Z,12.40
2023-02-14T15:24:10.524Z,12.10
2023-02-14T15:25:10.503Z,12.00
2023-02-14T15:26:10.484Z,12.10
2023-02-14T15:27:10.464Z,13.60
2023-02-14T15:28:17.989Z,12.70
2023-02-14T15:29:17.988Z,12.90
2023-02-14T15:30:19.012Z,11.40
2023-02-14T15:31:17.998Z,12.70
2023-02-14T15:32:19.120Z,11.90
2023-02-14T15:33:17.949Z,12.90
2023-02-14T15:34:17.905Z,12.40
2023-02-14T15:35:20.071Z,14.00
2023-02-14T15:36:17.866Z,11.00
2023-02-14T15:37:17.869Z,12.70
2023-02-14T15:38:10.334Z,12.10
2023-02-14T15:39:10.306Z,11.00
2023-02-14T15:40:10.296Z,11.80
2023-02-14T15:41:10.286Z,12.00
2023-02-14T15:42:10.286Z,13.20
2023-02-14T15:43:10.257Z,12.80
2023-02-14T15:44:10.327Z,12.20
2023-02-14T15:45:10.257Z,13.50
2023-02-14T15:46:10.326Z,12.50
2023-02-14T15:47:10.209Z,12.30
2023-02-14T15:48:10.205Z,14.40
2023-02-14T15:49:10.193Z,13.90
2023-02-14T15:50:10.213Z,13.10
2023-02-14T15:51:10.172Z,14.50
2023-02-14T15:52:10.139Z,11.60
2023-02-14T15:53:10.111Z,11.50
2023-02-14T15:54:10.104Z,11.90
2023-02-14T15:55:10.095Z,12.60
2023-02-14T15:56:10.084Z,11.80
2023-02-14T15:57:10.081Z,12.20
2023-02-14T15:58:10.066Z,13.20
2023-02-14T15:59:10.028Z,10.50
2023-02-14T16:00:10.004Z,13.40
2023-02-14T16:01:10.012Z,12.80
2023-02-14T16:02:10.009Z,12.00
2023-02-14T16:03:09.975Z,15.00
2023-02-14T16:04:10.282Z,13.50
2023-02-14T16:05:09.987Z,13.50
2023-02-14T16:06:09.925Z,13.20
2023-02-14T16:07:09.922Z,11.90
2023-02-14T16:08:09.892Z,12.50
2023-02-14T16:09:09.896Z,10.50
2023-02-14T16:10:09.894Z,12.10
2023-02-14T16:11:09.854Z,13.60
2023-02-14T16:12:09.872Z,10.10
2023-02-14T16:13:09.830Z,12.30
2023-02-14T16:14:09.899Z,12.00
2023-02-14T16:15:09.803Z,17.00
2023-02-14T16:16:09.893Z,12.00
2023-02-14T16:17:09.773Z,12.10
2023-02-14T16:18:09.770Z,12.90
2023-02-14T16:19:09.733Z,13.20
2023-02-14T16:20:09.748Z,12.50
2023-02-14T16:21:09.944Z,10.80
2023-02-14T16:22:09.724Z,12.80
2023-02-14T16:23:09.672Z,11.50
2023-02-14T16:24:09.847Z,11.20
2023-02-14T16:25:09.683Z,11.10
2023-02-14T16:26:09.637Z,11.10
2023-02-14T16:27:09.614Z,10.70
2023-02-14T16:28:09.647Z,13.40
2023-02-14T16:29:09.584Z,12.10
2023-02-14T16:30:09.595Z,13.30
2023-02-14T16:31:09.663Z,16.50
2023-02-14T16:32:16.304Z,12.60
2023-02-14T16:33:10.528Z,15.00
2023-02-14T16:34:09.522Z,13.50
2023-02-14T16:35:09.523Z,12.10
2023-02-14T16:36:09.537Z,12.50
2023-02-14T16:37:09.554Z,12.60
2023-02-14T16:38:09.526Z,11.50
2023-02-14T16:39:09.501Z,11.50
2023-02-14T16:40:09.432Z,10.80
2023-02-14T16:41:09.411Z,11.90
2023-02-14T16:42:09.409Z,11.00
2023-02-14T16:43:09.399Z,12.20
2023-02-14T16:44:09.404Z,13.10
2023-02-14T16:45:09.357Z,14.60
2023-02-14T16:46:09.417Z,13.00
2023-02-14T16:47:09.327Z,12.40
2023-02-14T16:48:09.327Z,14.80
2023-02-14T16:49:09.347Z,12.20
2023-02-14T16:50:09.483Z,13.40
2023-02-14T16:51:09.268Z,11.00
2023-02-14T16:52:09.252Z,12.20
2023-02-14T16:53:09.290Z,13.70
2023-02-14T16:54:09.233Z,14.20
2023-02-14T16:55:09.211Z,15.20
2023-02-14T16:56:09.206Z,18.40
2023-02-14T16:57:09.206Z,16.00
2023-02-14T16:58:09.197Z,14.10
2023-02-14T16:59:09.164Z,15.80
2023-02-14T17:00:09.185Z,17.40
2023-02-14T17:01:09.229Z,14.60
2023-02-14T17:02:09.158Z,15.70
2023-02-14T17:03:09.183Z,15.90
2023-02-14T17:04:09.147Z,13.90
2023-02-14T17:05:09.101Z,16.30
2023-02-14T17:06:09.072Z,16.60
2023-02-14T17:07:09.080Z,14.30
2023-02-14T17:08:09.168Z,14.80
2023-02-14T17:09:09.044Z,14.90
2023-02-14T17:10:09.038Z,17.00
2023-02-14T17:11:08.998Z,17.40
2023-02-14T17:12:09.000Z,15.40
2023-02-14T17:13:09.001Z,15.50
2023-02-14T17:14:08.987Z,15.30
2023-02-14T17:15:09.030Z,16.40
2023-02-14T17:16:08.999Z,18.10
2023-02-14T17:17:08.937Z,15.40
2023-02-14T17:18:08.955Z,17.20
2023-02-14T17:19:08.961Z,16.30
2023-02-14T17:20:08.885Z,14.60
2023-02-14T17:21:08.875Z,16.00
2023-02-14T17:22:08.912Z,15.60
2023-02-14T17:23:08.912Z,16.00
2023-02-14T17:24:08.861Z,15.20
2023-02-14T17:25:08.815Z,16.00
2023-02-14T17:26:08.815Z,14.80
2023-02-14T17:27:08.833Z,16.40
2023-02-14T17:28:08.787Z,17.10
2023-02-14T17:29:08.790Z,16.60
2023-02-14T17:30:08.815Z,17.50
2023-02-14T17:31:08.928Z,15.90
2023-02-14T17:32:08.809Z,18.80
2023-02-14T17:33:08.718Z,16.90
2023-02-14T17:34:08.708Z,19.20
2023-02-14T17:35:08.800Z,18.40
2023-02-14T17:36:10.710Z,17.10
2023-02-14T17:37:08.696Z,16.00
2023-02-14T17:38:08.661Z,17.10
2023-02-14T17:39:08.671Z,18.70
2023-02-14T17:40:08.672Z,18.50
2023-02-14T17:41:08.632Z,20.40
2023-02-14T17:42:10.437Z,17.60
2023-02-14T17:43:08.627Z,18.00
2023-02-14T17:44:08.603Z,17.40
2023-02-14T17:45:08.569Z,19.60
2023-02-14T17:46:08.684Z,18.80
2023-02-14T17:47:08.582Z,20.70
2023-02-14T17:48:10.870Z,21.10
2023-02-14T17:49:08.559Z,20.70
2023-02-14T17:50:08.512Z,21.10
2023-02-14T17:51:08.510Z,21.40
2023-02-14T17:52:08.494Z,20.80
2023-02-14T17:53:08.524Z,19.90
2023-02-14T17:54:08.472Z,23.60
2023-02-14T17:55:08.539Z,21.40
2023-02-14T17:56:08.497Z,20.70
2023-02-14T17:57:08.455Z,22.70
2023-02-14T17:58:08.409Z,23.20
2023-02-14T17:59:08.402Z,20.30
2023-02-14T18:00:09.634Z,24.30
2023-02-14T18:01:08.373Z,20.90
2023-02-14T18:02:08.476Z,22.10
2023-02-14T18:03:08.518Z,19.90
2023-02-14T18:04:08.382Z,22.30
2023-02-14T18:05:08.364Z,23.80
2023-02-14T18:06:09.843Z,22.10
2023-02-14T18:07:08.332Z,22.40
2023-02-14T18:08:08.295Z,27.00
2023-02-14T18:09:08.400Z,26.40
2023-02-14T18:10:08.289Z,22.70
2023-02-14T18:11:08.277Z,21.70
2023-02-14T18:12:12.217Z,20.90
2023-02-14T18:13:09.247Z,21.50
2023-02-14T18:14:08.225Z,21.50
2023-02-14T18:15:08.212Z,19.90
2023-02-14T18:16:08.288Z,21.30
2023-02-14T18:17:08.245Z,26.70
2023-02-14T18:18:10.088Z,23.20
2023-02-14T18:19:08.191Z,21.60
2023-02-14T18:20:08.148Z,20.90
2023-02-14T18:21:08.203Z,21.60
2023-02-14T18:22:08.136Z,21.50
2023-02-14T18:23:08.179Z,25.60
2023-02-14T18:24:08.234Z,23.40
2023-02-14T18:25:08.080Z,25.40
2023-02-14T18:26:08.082Z,26.80
2023-02-14T18:27:08.301Z,28.00
2023-02-14T18:28:08.028Z,25.30
2023-02-14T18:29:08.161Z,25.50
2023-02-14T18:30:08.067Z,28.20
2023-02-14T18:31:08.205Z,26.50
2023-02-14T18:32:08.087Z,24.20
2023-02-14T18:33:08.007Z,25.60
2023-02-14T18:34:07.968Z,30.60
2023-02-14T18:35:07.952Z,26.40
2023-02-14T18:36:07.958Z,21.40
2023-02-14T18:37:07.941Z,26.30
2023-02-14T18:38:07.942Z,24.90
2023-02-14T18:39:07.905Z,23.90
2023-02-14T18:40:09.669Z,21.70
2023-02-14T18:41:07.905Z,25.10
2023-02-14T18:42:07.833Z,21.20
2023-02-14T18:43:07.833Z,22.30
2023-02-14T18:44:07.832Z,24.60
2023-02-14T18:45:07.799Z,25.00
2023-02-14T18:46:07.819Z,22.40
2023-02-14T18:47:07.799Z,26.40
2023-02-14T18:48:07.776Z,24.80
2023-02-14T18:49:07.742Z,28.30
2023-02-14T18:50:07.748Z,27.20
2023-02-14T18:51:07.771Z,25.40
2023-02-14T18:52:07.752Z,31.80
2023-02-14T18:53:07.696Z,27.90
2023-02-14T18:54:07.683Z,27.60
2023-02-14T18:55:07.690Z,28.20
2023-02-14T18:56:07.664Z,26.80
2023-02-14T18:57:07.658Z,28.00
2023-02-14T18:58:07.909Z,26.60
2023-02-14T18:59:07.611Z,26.30
2023-02-14T19:00:07.618Z,23.70
2023-02-14T19:01:07.780Z,23.70
2023-02-14T19:02:07.609Z,28.20
2023-02-14T19:03:07.571Z,25.90
2023-02-14T19:04:07.580Z,23.50
2023-02-14T19:05:07.560Z,26.50
2023-02-14T19:06:07.558Z,21.20
2023-02-14T19:07:07.523Z,26.00
2023-02-14T19:08:07.500Z,21.90
2023-02-14T19:09:07.534Z,23.30
2023-02-14T19:10:07.480Z,25.80
2023-02-14T19:11:07.478Z,26.50
2023-02-14T19:12:07.467Z,24.90
2023-02-14T19:13:07.446Z,27.50
2023-02-14T19:14:07.426Z,26.50
2023-02-14T19:15:07.433Z,30.10
2023-02-14T19:16:07.445Z,29.00
2023-02-14T19:17:07.382Z,24.90
2023-02-14T19:18:07.366Z,31.50
2023-02-14T19:19:07.368Z,27.70
2023-02-14T19:20:07.362Z,25.30
2023-02-14T19:21:07.365Z,23.60
2023-02-14T19:22:07.372Z,21.10
2023-02-14T19:23:07.327Z,25.40
2023-02-14T19:24:07.317Z,29.10
2023-02-14T19:25:07.297Z,28.00
2023-02-14T19:26:07.248Z,23.90
2023-02-14T19:27:07.273Z,25.20
2023-02-14T19:28:07.261Z,28.40
2023-02-14T19:29:07.227Z,24.10
2023-02-14T19:30:07.283Z,23.90
2023-02-14T19:31:07.262Z,31.60
2023-02-14T19:32:07.219Z,30.30
2023-02-14T19:33:07.174Z,29.70
2023-02-14T19:34:07.204Z,30.10
2023-02-14T19:35:07.157Z,29.30
2023-02-14T19:36:07.201Z,29.00
2023-02-14T19:37:07.120Z,29.20
2023-02-14T19:38:07.092Z,29.40
2023-02-14T19:39:07.110Z,28.20
2023-02-14T19:40:07.101Z,27.20
2023-02-14T19:41:07.096Z,27.20
2023-02-14T19:42:07.056Z,25.40
2023-02-14T19:43:07.037Z,24.00
2023-02-14T19:44:07.045Z,28.50
2023-02-14T19:45:07.035Z,25.70
2023-02-14T19:46:07.092Z,23.60
2023-02-14T19:47:19.404Z,29.50
2023-02-14T19:48:07.966Z,32.10
2023-02-14T19:49:06.961Z,32.70
2023-02-14T19:50:06.944Z,31.10
2023-02-14T19:51:06.929Z,31.30
2023-02-14T19:52:14.161Z,33.20
2023-02-14T19:53:07.918Z,31.10
2023-02-14T19:54:07.022Z,36.50
2023-02-14T19:55:06.933Z,39.30
2023-02-14T19:56:06.872Z,32.50
2023-02-14T19:57:06.862Z,37.70
2023-02-14T19:58:06.869Z,32.70
2023-02-14T19:59:06.827Z,36.30
2023-02-14T20:00:06.826Z,33.70
2023-02-14T20:01:06.886Z,35.50
2023-02-14T20:02:06.832Z,34.90
2023-02-14T20:03:06.778Z,33.70
2023-02-14T20:04:06.742Z,32.80
2023-02-14T20:05:06.751Z,32.90
2023-02-14T20:06:06.728Z,34.00
2023-02-14T20:07:06.745Z,32.70
2023-02-14T20:08:06.754Z,34.80
2023-02-14T20:09:06.698Z,33.60
2023-02-14T20:10:06.672Z,32.00
2023-02-14T20:11:06.686Z,36.20
2023-02-14T20:12:06.667Z,33.30
2023-02-14T20:13:06.646Z,35.40
2023-02-14T20:14:06.617Z,36.70
2023-02-14T20:15:07.090Z,31.80
2023-02-14T20:16:06.587Z,31.20
2023-02-14T20:17:06.636Z,33.30
2023-02-14T20:18:06.559Z,33.00
2023-02-14T20:19:06.565Z,33.10
2023-02-14T20:20:06.619Z,35.80
2023-02-14T20:21:06.536Z,33.80
2023-02-14T20:22:06.533Z,35.90
2023-02-14T20:23:06.516Z,32.30
2023-02-14T20:24:06.485Z,36.70
2023-02-14T20:25:06.497Z,34.40
2023-02-14T20:26:06.453Z,33.60
2023-02-14T20:27:06.487Z,38.50
2023-02-14T20:28:06.477Z,41.50
2023-02-14T20:29:06.438Z,39.70
2023-02-14T20:30:06.504Z,36.50
2023-02-14T20:31:06.579Z,37.60
2023-02-14T20:32:06.426Z,34.40
2023-02-14T20:33:06.376Z,39.00
2023-02-14T20:34:06.349Z,36.10
2023-02-14T20:35:06.335Z,33.40
2023-02-14T20:36:06.373Z,32.00
2023-02-14T20:37:06.327Z,35.10
2023-02-14T20:38:06.324Z,31.30
2023-02-14T20:39:06.301Z,33.40
2023-02-14T20:40:06.278Z,33.60
2023-02-14T20:41:06.272Z,32.90
2023-02-14T20:42:06.272Z,32.20
2023-02-14T20:43:06.385Z,32.80
2023-02-14T20:44:06.296Z,32.20
2023-02-14T20:45:06.211Z,31.10
2023-02-14T20:46:06.217Z,32.60
2023-02-14T20:47:06.206Z,34.50
2023-02-14T20:48:06.169Z,36.40
2023-02-14T20:49:06.152Z,34.90
2023-02-14T20:50:06.141Z,31.60
2023-02-14T20:51:06.111Z,33.60
2023-02-14T20:52:06.123Z,33.30
2023-02-14T20:53:06.183Z,37.90
2023-02-14T20:54:06.128Z,34.70
2023-02-14T20:55:06.125Z,34.80
2023-02-14T20:56:06.054Z,31.30
2023-02-14T20:57:06.050Z,31.10
2023-02-14T20:58:06.035Z,31.80
2023-02-14T20:59:06.043Z,32.90
2023-02-14T21:00:06.059Z,33.60
2023-02-14T21:01:06.093Z,39.70
2023-02-14T21:02:05.980Z,36.70
2023-02-14T21:03:05.967Z,38.40
2023-02-14T21:04:05.951Z,35.30
2023-02-14T21:05:05.971Z,37.30
2023-02-14T21:06:05.922Z,35.40
2023-02-14T21:07:05.971Z,32.60
2023-02-14T21:08:05.915Z,34.30
2023-02-14T21:09:05.962Z,32.10
2023-02-14T21:10:06.022Z,36.50
2023-02-14T21:11:05.873Z,32.70
2023-02-14T21:12:05.832Z,37.30
2023-02-14T21:13:05.860Z,35.70
2023-02-14T21:14:05.819Z,37.90
2023-02-14T21:15:05.804Z,38.40
2023-02-14T21:16:05.999Z,35.80
2023-02-14T21:17:05.772Z,34.20
2023-02-14T21:18:05.781Z,35.50
2023-02-14T21:19:05.749Z,33.30
2023-02-14T21:20:05.759Z,31.20
2023-02-14T21:21:05.747Z,32.50
2023-02-14T21:22:05.737Z,32.10
2023-02-14T21:23:13.279Z,34.70
2023-02-14T21:24:05.712Z,32.00
2023-02-14T21:25:15.031Z,34.50
2023-02-14T21:26:05.712Z,32.50
2023-02-14T21:27:05.669Z,36.60
2023-02-14T21:28:05.651Z,33.60
2023-02-14T21:29:05.627Z,38.10
2023-02-14T21:30:05.643Z,37.90
2023-02-14T21:31:05.707Z,35.50
2023-02-14T21:32:05.688Z,33.60
2023-02-14T21:33:05.562Z,36.20
2023-02-14T21:34:05.570Z,32.40
2023-02-14T21:35:05.546Z,34.90
2023-02-14T21:36:05.545Z,36.20
2023-02-14T21:37:05.510Z,35.10
2023-02-14T21:38:05.527Z,34.90
2023-02-14T21:39:05.496Z,35.10
2023-02-14T21:40:05.484Z,30.70
2023-02-14T21:41:05.462Z,32.80
2023-02-14T21:42:05.445Z,35.90
2023-02-14T21:43:05.433Z,36.20
2023-02-14T21:44:05.445Z,35.10
2023-02-14T21:45:05.420Z,36.80
2023-02-14T21:46:06.593Z,32.80
2023-02-14T21:47:05.381Z,31.60
2023-02-14T21:48:05.377Z,32.50
2023-02-14T21:49:05.351Z,32.10
2023-02-14T21:50:05.360Z,34.80
2023-02-14T21:51:06.611Z,33.60
2023-02-14T21:52:05.364Z,32.80
2023-02-14T21:53:05.299Z,34.70
2023-02-14T21:54:05.327Z,34.70
2023-02-14T21:55:05.291Z,36.40
2023-02-14T21:56:05.282Z,35.90
2023-02-14T21:57:05.273Z,33.70
2023-02-14T21:58:05.328Z,33.90
2023-02-14T21:59:05.241Z,30.20
2023-02-14T22:00:05.235Z,32.30
2023-02-14T22:01:05.213Z,37.50
2023-02-14T22:02:12.696Z,34.90
2023-02-14T22:03:14.363Z,31.00
2023-02-14T22:04:12.716Z,33.60
2023-02-14T22:05:12.727Z,31.10
2023-02-14T22:06:12.654Z,30.90
2023-02-14T22:07:12.665Z,31.70
2023-02-14T22:08:12.656Z,32.60
2023-02-14T22:09:15.827Z,34.70
2023-02-14T22:10:12.622Z,33.30
2023-02-14T22:11:12.633Z,33.80
2023-02-14T22:12:05.064Z,37.30
2023-02-14T22:13:05.025Z,33.80
2023-02-14T22:14:05.030Z,35.30
2023-02-14T22:15:12.533Z,32.10
2023-02-14T22:16:05.106Z,33.20
2023-02-14T22:17:04.988Z,34.00
2023-02-14T22:18:04.972Z,32.50
2023-02-14T22:19:04.967Z,34.40
2023-02-14T22:20:04.962Z,32.30
2023-02-14T22:21:06.721Z,36.80
2023-02-14T22:22:04.940Z,34.00
2023-02-14T22:23:04.936Z,31.40
2023-02-14T22:24:04.955Z,36.60
2023-02-14T22:25:04.879Z,35.90
2023-02-14T22:26:04.884Z,31.00
2023-02-14T22:27:04.860Z,29.30
2023-02-14T22:28:04.890Z,32.50
2023-02-14T22:29:04.843Z,34.30
2023-02-14T22:30:04.860Z,34.10
2023-02-14T22:31:05.118Z,35.90
2023-02-14T22:32:04.904Z,30.80
2023-02-14T22:33:04.761Z,33.60
2023-02-14T22:34:04.760Z,34.40
2023-02-14T22:35:04.768Z,34.90
2023-02-14T22:36:04.825Z,33.50
2023-02-14T22:37:04.717Z,33.60
2023-02-14T22:38:04.735Z,37.50
2023-02-14T22:39:04.747Z,35.30
2023-02-14T22:40:04.712Z,33.30
2023-02-14T22:41:04.684Z,32.50
2023-02-14T22:42:04.660Z,35.00
2023-02-14T22:43:04.623Z,34.80
2023-02-14T22:44:04.656Z,35.10
2023-02-14T22:45:04.655Z,31.00
2023-02-14T22:46:04.629Z,35.70
2023-02-14T22:47:04.632Z,33.30
2023-02-14T22:48:04.581Z,41.00
2023-02-14T22:49:04.638Z,34.60
2023-02-14T22:50:04.546Z,35.50
2023-02-14T22:51:04.538Z,32.20
2023-02-14T22:52:04.522Z,35.40
2023-02-14T22:53:07.660Z,32.80
2023-02-14T22:54:04.525Z,36.60
2023-02-14T22:55:04.520Z,35.30
2023-02-14T22:56:04.500Z,32.10
2023-02-14T22:57:04.501Z,33.70
2023-02-14T22:58:04.462Z,31.20
